createdAt,value
2024-01-17T00:01:48.181Z,7.12
2024-01-17T00:04:16.638Z,8.77
2024-01-17T00:06:44.115Z,9.18
2024-01-17T00:09:11.632Z,8.00
2024-01-17T00:11:39.565Z,9.15
2024-01-17T00:14:07.041Z,7.70
2024-01-17T00:16:34.803Z,7.85
2024-01-17T00:19:02.933Z,8.68
2024-01-17T00:21:30.447Z,8.27
2024-01-17T00:23:58.007Z,9.60
2024-01-17T00:26:25.853Z,9.38
2024-01-17T00:28:53.330Z,8.38
2024-01-17T00:31:22.019Z,9.07
2024-01-17T00:33:54.173Z,9.82
2024-01-17T00:36:21.783Z,10.20
2024-01-17T00:38:49.863Z,10.10
2024-01-17T00:41:18.941Z,9.52
2024-01-17T00:43:46.576Z,9.80
2024-01-17T00:46:14.445Z,8.60
2024-01-17T00:48:42.300Z,9.18
2024-01-17T00:51:22.686Z,9.80
2024-01-17T00:53:50.450Z,7.85
2024-01-17T00:56:17.964Z,8.75
2024-01-17T00:58:45.414Z,8.13
2024-01-17T01:01:13.222Z,7.00
2024-01-17T01:03:41.687Z,7.25
2024-01-17T01:06:09.258Z,8.88
2024-01-17T01:08:37.099Z,8.07
2024-01-17T01:11:04.657Z,7.82
2024-01-17T01:13:32.057Z,6.70
2024-01-17T01:15:59.781Z,7.43
2024-01-17T01:18:27.533Z,5.15
2024-01-17T01:20:55.202Z,6.18
2024-01-17T01:23:25.797Z,6.87
2024-01-17T01:25:53.409Z,7.03
2024-01-17T01:28:21.253Z,6.57
2024-01-17T01:30:49.064Z,6.80
2024-01-17T01:33:16.682Z,7.15
2024-01-17T01:35:44.263Z,7.05
2024-01-17T01:38:13.921Z,7.37
2024-01-17T01:40:43.650Z,7.37
2024-01-17T01:43:18.984Z,7.60
2024-01-17T01:46:12.549Z,7.47
2024-01-17T01:48:41.507Z,5.28
2024-01-17T01:51:13.144Z,6.65
2024-01-17T01:53:43.652Z,6.40
2024-01-17T01:56:13.727Z,5.68
2024-01-17T01:58:44.394Z,6.90
2024-01-17T02:01:12.733Z,7.22
2024-01-17T02:03:44.158Z,6.85
2024-01-17T02:06:13.878Z,6.32
2024-01-17T02:08:42.074Z,6.70
2024-01-17T02:11:10.051Z,7.20
2024-01-17T02:13:37.807Z,6.85
2024-01-17T02:16:07.033Z,7.03
2024-01-17T02:18:34.841Z,6.90
2024-01-17T02:21:05.653Z,6.72
2024-01-17T02:23:38.023Z,7.97
2024-01-17T02:26:05.708Z,7.28
2024-01-17T02:28:33.659Z,7.43
2024-01-17T02:31:07.393Z,7.50
2024-01-17T02:33:35.425Z,6.37
2024-01-17T02:36:03.164Z,6.68
2024-01-17T02:38:30.629Z,7.53
2024-01-17T02:40:58.339Z,6.45
2024-01-17T02:43:28.823Z,8.20
2024-01-17T02:45:56.294Z,6.57
2024-01-17T02:48:24.211Z,9.10
2024-01-17T02:50:51.778Z,8.05
2024-01-17T02:53:21.347Z,7.65
2024-01-17T02:55:49.035Z,6.97
2024-01-17T02:58:17.361Z,7.10
2024-01-17T03:00:45.125Z,8.82
2024-01-17T03:03:13.047Z,7.32
2024-01-17T03:05:40.564Z,7.18
2024-01-17T03:08:08.103Z,7.43
2024-01-17T03:10:36.654Z,8.52
2024-01-17T03:13:04.292Z,7.57
2024-01-17T03:15:31.871Z,7.07
2024-01-17T03:18:03.244Z,9.43
2024-01-17T03:20:31.398Z,9.07
2024-01-17T03:22:59.107Z,7.47
2024-01-17T03:25:27.092Z,8.07
2024-01-17T03:27:54.542Z,7.82
2024-01-17T03:30:22.871Z,8.43
2024-01-17T03:32:52.572Z,6.43
2024-01-17T03:35:20.046Z,7.30
2024-01-17T03:37:48.053Z,8.07
2024-01-17T03:40:15.548Z,7.25
2024-01-17T03:42:43.003Z,6.32
2024-01-17T03:45:11.113Z,7.87
2024-01-17T03:47:39.264Z,7.62
2024-01-17T03:50:07.001Z,8.35
2024-01-17T03:52:34.762Z,7.12
2024-01-17T03:55:02.268Z,7.68
2024-01-17T03:57:29.720Z,6.93
2024-01-17T03:59:57.495Z,6.82
2024-01-17T04:02:26.753Z,9.13
2024-01-17T04:04:54.530Z,8.55
2024-01-17T04:07:23.688Z,9.20
2024-01-17T04:09:51.217Z,8.63
2024-01-17T04:12:21.931Z,8.60
2024-01-17T04:14:49.610Z,8.07
2024-01-17T04:17:17.497Z,6.53
2024-01-17T04:19:45.470Z,8.38
2024-01-17T04:22:13.370Z,9.35
2024-01-17T04:24:40.805Z,6.90
2024-01-17T04:27:08.799Z,7.35
2024-01-17T04:29:36.882Z,5.45
2024-01-17T04:32:04.575Z,7.07
2024-01-17T04:34:32.361Z,8.73
2024-01-17T04:36:59.850Z,8.32
2024-01-17T04:39:29.391Z,7.62
2024-01-17T04:41:57.764Z,8.38
2024-01-17T04:44:25.335Z,8.02
2024-01-17T04:46:53.028Z,10.30
2024-01-17T04:49:20.928Z,7.45
2024-01-17T04:51:48.584Z,6.90
2024-01-17T04:54:16.717Z,6.55
2024-01-17T04:56:44.442Z,7.35
2024-01-17T04:59:12.400Z,8.75
2024-01-17T05:01:39.893Z,5.10
2024-01-17T05:04:09.610Z,6.00
2024-01-17T05:06:37.281Z,7.20
2024-01-17T05:09:08.855Z,7.62
2024-01-17T05:11:36.971Z,6.10
2024-01-17T05:14:04.677Z,7.55
2024-01-17T05:16:32.113Z,7.28
2024-01-17T05:18:59.925Z,6.62
2024-01-17T05:21:27.493Z,8.50
2024-01-17T05:23:54.943Z,6.40
2024-01-17T05:26:22.675Z,7.60
2024-01-17T05:28:50.170Z,6.62
2024-01-17T05:31:17.953Z,6.62
2024-01-17T05:33:47.189Z,8.68
2024-01-17T05:36:14.885Z,7.53
2024-01-17T05:38:42.434Z,7.65
2024-01-17T05:41:11.128Z,8.15
2024-01-17T05:43:38.554Z,6.62
2024-01-17T05:46:06.056Z,7.82
2024-01-17T05:48:33.995Z,8.35
2024-01-17T05:51:01.629Z,7.12
2024-01-17T05:53:28.609Z,7.65
2024-01-17T05:55:56.403Z,5.87
2024-01-17T05:58:24.407Z,6.18
2024-01-17T06:00:51.878Z,5.45
2024-01-17T06:03:20.243Z,6.12
2024-01-17T06:05:48.225Z,7.85
2024-01-17T06:08:15.763Z,4.53
2024-01-17T06:10:43.619Z,6.82
2024-01-17T06:13:11.118Z,6.62
2024-01-17T06:15:38.534Z,5.10
2024-01-17T06:18:14.337Z,6.65
2024-01-17T06:20:41.885Z,6.28
2024-01-17T06:23:09.636Z,6.05
2024-01-17T06:25:37.031Z,5.65
2024-01-17T06:28:04.729Z,6.10
2024-01-17T06:30:32.579Z,6.07
2024-01-17T06:33:01.594Z,6.25
2024-01-17T06:35:29.585Z,6.57
2024-01-17T06:37:57.267Z,7.78
2024-01-17T06:40:27.124Z,6.53
2024-01-17T06:42:55.553Z,6.40
2024-01-17T06:45:23.348Z,5.43
2024-01-17T06:47:50.905Z,5.37
2024-01-17T06:50:20.270Z,6.78
2024-01-17T06:52:48.025Z,6.72
2024-01-17T06:55:18.644Z,6.53
2024-01-17T06:57:46.577Z,6.57
2024-01-17T07:00:17.107Z,7.60
2024-01-17T07:02:46.437Z,7.65
2024-01-17T07:05:14.945Z,6.72
2024-01-17T07:07:42.382Z,6.57
2024-01-17T07:10:10.160Z,6.90
2024-01-17T07:12:37.874Z,5.70
2024-01-17T07:15:06.214Z,7.70
2024-01-17T07:17:33.770Z,6.82
2024-01-17T07:20:01.909Z,7.28
2024-01-17T07:22:29.468Z,6.30
2024-01-17T07:24:57.215Z,6.45
2024-01-17T07:27:24.993Z,5.75
2024-01-17T07:29:52.759Z,6.57
2024-01-17T07:32:20.241Z,5.95
2024-01-17T07:34:49.067Z,4.93
2024-01-17T07:37:18.148Z,6.70
2024-01-17T07:39:48.736Z,5.87
2024-01-17T07:42:19.583Z,6.15
2024-01-17T07:44:47.217Z,6.93
2024-01-17T07:47:16.437Z,6.93
2024-01-17T07:49:45.860Z,6.18
2024-01-17T07:52:13.311Z,5.00
2024-01-17T07:54:42.761Z,6.12
2024-01-17T07:57:10.264Z,5.43
2024-01-17T07:59:40.307Z,5.80
2024-01-17T08:02:08.043Z,6.82
2024-01-17T08:04:37.589Z,7.07
2024-01-17T08:07:05.062Z,6.53
2024-01-17T08:09:35.495Z,7.37
2024-01-17T08:12:05.709Z,7.60
2024-01-17T08:14:34.593Z,7.18
2024-01-17T08:17:04.026Z,5.72
2024-01-17T08:19:31.920Z,6.80
2024-01-17T08:22:05.260Z,6.10
2024-01-17T08:24:33.409Z,8.23
2024-01-17T08:27:01.966Z,7.50
2024-01-17T08:29:31.436Z,4.75
2024-01-17T08:31:59.546Z,6.15
2024-01-17T08:34:27.142Z,8.23
2024-01-17T08:36:55.782Z,6.87
2024-01-17T08:39:24.087Z,6.22
2024-01-17T08:41:51.655Z,6.22
2024-01-17T08:44:20.335Z,6.85
2024-01-17T08:46:49.197Z,5.03
2024-01-17T08:49:16.716Z,5.12
2024-01-17T08:51:48.596Z,7.70
2024-01-17T08:54:16.309Z,6.62
2024-01-17T08:56:47.631Z,7.20
2024-01-17T08:59:15.105Z,5.50
2024-01-17T09:01:43.479Z,7.03
2024-01-17T09:04:13.597Z,6.85
2024-01-17T09:06:41.164Z,6.78
2024-01-17T09:09:16.422Z,6.78
2024-01-17T09:11:44.868Z,9.25
2024-01-17T09:14:13.840Z,8.15
2024-01-17T09:16:41.540Z,8.23
2024-01-17T09:19:09.179Z,7.28
2024-01-17T09:21:37.129Z,6.47
2024-01-17T09:24:04.338Z,7.12
2024-01-17T09:26:32.158Z,8.07
2024-01-17T09:29:01.649Z,8.68
2024-01-17T09:31:30.911Z,6.37
2024-01-17T09:34:00.583Z,8.90
2024-01-17T09:36:28.542Z,6.03
2024-01-17T09:38:56.217Z,8.82
2024-01-17T09:41:23.750Z,7.60
2024-01-17T09:43:51.567Z,6.55
2024-01-17T09:46:19.829Z,7.93
2024-01-17T09:48:48.345Z,7.40
2024-01-17T09:51:19.765Z,8.05
2024-01-17T09:53:52.810Z,7.37
2024-01-17T09:56:29.973Z,9.50
2024-01-17T09:59:10.512Z,9.90
2024-01-17T10:01:38.613Z,8.27
2024-01-17T10:04:06.579Z,6.70
2024-01-17T10:06:40.759Z,7.37
2024-01-17T10:09:10.136Z,8.68
2024-01-17T10:11:37.603Z,8.57
2024-01-17T10:14:09.336Z,9.02
2024-01-17T10:16:39.202Z,9.85
2024-01-17T10:19:07.272Z,7.57
2024-01-17T10:21:35.572Z,8.88
2024-01-17T10:24:07.896Z,8.65
2024-01-17T10:26:36.105Z,7.93
2024-01-17T10:29:03.982Z,8.30
2024-01-17T10:31:32.118Z,9.50
2024-01-17T10:34:02.033Z,8.63
2024-01-17T10:36:30.067Z,7.53
2024-01-17T10:39:05.065Z,7.10
2024-01-17T10:41:34.390Z,8.30
2024-01-17T10:44:03.755Z,9.70
2024-01-17T10:46:31.717Z,10.00
2024-01-17T10:49:00.803Z,7.55
2024-01-17T10:51:33.092Z,4.82
2024-01-17T10:54:01.647Z,8.18
2024-01-17T10:56:30.947Z,7.90
2024-01-17T10:59:00.058Z,7.55
2024-01-17T11:01:34.827Z,9.93
2024-01-17T11:04:24.404Z,7.85
2024-01-17T11:06:53.189Z,9.25
2024-01-17T11:09:23.171Z,7.60
2024-01-17T11:11:50.871Z,7.87
2024-01-17T11:14:19.964Z,9.55
2024-01-17T11:16:49.872Z,8.77
2024-01-17T11:19:18.745Z,9.52
2024-01-17T11:21:47.308Z,9.73
2024-01-17T11:24:59.358Z,8.15
2024-01-17T11:27:34.915Z,10.35
2024-01-17T11:30:14.708Z,10.70
2024-01-17T11:32:42.575Z,10.02
2024-01-17T11:35:11.002Z,8.70
2024-01-17T11:37:40.400Z,10.05
2024-01-17T11:40:08.964Z,8.02
2024-01-17T11:42:38.849Z,8.70
2024-01-17T11:45:13.771Z,10.07
2024-01-17T11:47:53.163Z,10.80
2024-01-17T11:50:24.621Z,10.32
2024-01-17T11:52:56.998Z,13.05
2024-01-17T11:55:50.657Z,8.98
2024-01-17T12:00:46.586Z,10.25
2024-01-17T12:03:33.379Z,9.88
2024-01-17T12:06:02.030Z,10.38
2024-01-17T12:08:30.933Z,12.25
2024-01-17T12:11:01.693Z,10.90
2024-01-17T12:13:28.893Z,9.05
2024-01-17T12:15:57.828Z,9.07
2024-01-17T12:18:27.056Z,8.57
2024-01-17T12:21:02.822Z,11.02
2024-01-17T12:23:32.280Z,9.52
2024-01-17T12:26:00.546Z,10.65
2024-01-17T12:28:30.885Z,12.50
2024-01-17T12:31:06.901Z,8.95
2024-01-17T12:33:35.823Z,9.70
2024-01-17T12:36:05.587Z,9.93
2024-01-17T12:38:40.711Z,10.52
2024-01-17T12:41:11.467Z,9.70
2024-01-17T12:43:39.077Z,10.02
2024-01-17T12:46:08.405Z,9.05
2024-01-17T12:48:36.913Z,8.70
2024-01-17T12:51:09.265Z,10.88
2024-01-17T12:53:41.009Z,11.10
2024-01-17T12:56:13.047Z,10.35
2024-01-17T12:58:40.788Z,10.98
2024-01-17T13:01:15.357Z,12.35
2024-01-17T13:03:46.007Z,10.73
2024-01-17T13:06:14.732Z,10.80
2024-01-17T13:08:42.812Z,9.52
2024-01-17T13:11:17.580Z,11.98
2024-01-17T13:13:44.989Z,12.05
2024-01-17T13:16:15.175Z,9.52
2024-01-17T13:18:44.330Z,12.65
2024-01-17T13:21:14.361Z,11.18
2024-01-17T13:23:48.115Z,10.38
2024-01-17T13:26:15.417Z,10.85
2024-01-17T13:28:42.379Z,8.18
2024-01-17T13:31:24.621Z,10.38
2024-01-17T13:33:53.197Z,7.40
2024-01-17T13:36:21.346Z,9.20
2024-01-17T13:38:50.172Z,12.07
2024-01-17T13:41:17.479Z,9.65
2024-01-17T13:43:45.127Z,11.02
2024-01-17T13:46:14.396Z,11.02
2024-01-17T13:48:42.848Z,9.88
2024-01-17T13:51:23.565Z,10.20
2024-01-17T13:53:54.907Z,10.73
2024-01-17T13:56:22.236Z,10.30
2024-01-17T13:58:50.892Z,10.18
2024-01-17T14:01:20.357Z,11.55
2024-01-17T14:03:48.462Z,12.77
2024-01-17T14:06:16.244Z,10.90
2024-01-17T14:08:43.468Z,13.05
2024-01-17T14:11:14.454Z,12.43
2024-01-17T14:13:43.831Z,11.20
2024-01-17T14:16:11.691Z,8.43
2024-01-17T14:18:39.170Z,12.88
2024-01-17T14:21:09.797Z,12.45
2024-01-17T14:23:37.115Z,13.30
2024-01-17T14:26:05.652Z,13.60
2024-01-17T14:28:33.613Z,10.95
2024-01-17T14:31:02.416Z,9.10
2024-01-17T14:33:29.467Z,12.57
2024-01-17T14:35:56.476Z,10.32
2024-01-17T14:38:23.953Z,13.27
2024-01-17T14:40:51.243Z,10.60
2024-01-17T14:43:21.558Z,11.25
2024-01-17T14:45:50.697Z,11.50
2024-01-17T14:48:18.268Z,13.88
2024-01-17T14:50:48.509Z,12.98
2024-01-17T14:53:16.615Z,12.45
2024-01-17T14:55:44.234Z,12.30
2024-01-17T14:58:16.516Z,10.27
2024-01-17T15:00:43.954Z,11.60
2024-01-17T15:03:12.176Z,11.20
2024-01-17T15:05:39.919Z,13.95
2024-01-17T15:08:07.812Z,13.68
2024-01-17T15:10:36.238Z,12.95
2024-01-17T15:13:09.968Z,14.40
2024-01-17T15:15:38.690Z,13.95
2024-01-17T15:18:09.508Z,13.73
2024-01-17T15:20:39.020Z,14.68
2024-01-17T15:23:08.226Z,14.27
2024-01-17T15:25:35.744Z,14.05
2024-01-17T15:28:05.300Z,12.98
2024-01-17T15:30:32.893Z,13.90
2024-01-17T15:32:59.919Z,15.60
2024-01-17T15:35:27.560Z,16.33
2024-01-17T15:37:56.714Z,14.18
2024-01-17T15:40:23.699Z,16.30
2024-01-17T15:42:50.741Z,13.27
2024-01-17T15:45:18.934Z,14.70
2024-01-17T15:47:46.808Z,15.43
2024-01-17T15:50:22.034Z,14.15
2024-01-17T15:52:49.462Z,15.02
2024-01-17T15:55:18.317Z,14.50
2024-01-17T15:57:45.262Z,17.30
2024-01-17T16:00:14.632Z,15.77
2024-01-17T16:02:42.548Z,16.95
2024-01-17T16:05:11.350Z,17.35
2024-01-17T16:07:42.244Z,15.23
2024-01-17T16:10:10.987Z,15.35
2024-01-17T16:12:39.679Z,20.00
2024-01-17T16:15:10.715Z,19.80
2024-01-17T16:17:38.304Z,17.62
2024-01-17T16:20:06.753Z,17.85
2024-01-17T16:22:35.410Z,18.02
2024-01-17T16:25:03.539Z,19.02
2024-01-17T16:27:32.635Z,22.50
2024-01-17T16:30:01.166Z,17.90
2024-01-17T16:32:30.732Z,16.70
2024-01-17T16:34:58.408Z,15.85
2024-01-17T16:37:26.154Z,17.75
2024-01-17T16:39:53.938Z,15.38
2024-01-17T16:42:21.645Z,17.17
2024-01-17T16:44:49.144Z,17.75
2024-01-17T16:47:16.396Z,17.20
2024-01-17T16:49:44.107Z,16.80
2024-01-17T16:52:15.929Z,16.58
2024-01-17T16:54:43.645Z,17.90
2024-01-17T16:57:12.587Z,17.37
2024-01-17T16:59:39.600Z,21.10
2024-01-17T17:02:07.871Z,16.30
2024-01-17T17:04:35.127Z,17.00
2024-01-17T17:07:05.132Z,17.95
2024-01-17T17:09:34.240Z,16.95
2024-01-17T17:12:04.984Z,17.98
2024-01-17T17:14:33.950Z,19.95
2024-01-17T17:17:01.455Z,17.50
2024-01-17T17:19:31.189Z,17.80
2024-01-17T17:21:58.348Z,17.65
2024-01-17T17:24:25.507Z,16.73
2024-01-17T17:26:52.694Z,17.00
2024-01-17T17:29:19.996Z,17.85
2024-01-17T17:31:47.747Z,16.60
2024-01-17T17:34:16.156Z,17.73
2024-01-17T17:36:44.010Z,18.08
2024-01-17T17:39:14.760Z,19.98
2024-01-17T17:41:43.605Z,17.58
2024-01-17T17:44:11.573Z,18.37
2024-01-17T17:46:38.669Z,17.60
2024-01-17T17:49:08.759Z,20.10
2024-01-17T17:51:36.576Z,18.55
2024-01-17T17:54:05.290Z,18.30
2024-01-17T17:56:32.377Z,16.55
2024-01-17T17:59:01.480Z,19.10
2024-01-17T18:01:28.991Z,19.40
2024-01-17T18:03:57.820Z,19.12
2024-01-17T18:06:24.921Z,21.05
2024-01-17T18:08:51.993Z,20.62
2024-01-17T18:11:19.843Z,18.10
2024-01-17T18:13:49.774Z,19.15
2024-01-17T18:16:24.809Z,19.35
2024-01-17T18:18:57.394Z,23.83
2024-01-17T18:21:25.689Z,23.42
2024-01-17T18:23:53.262Z,23.83
2024-01-17T18:26:20.832Z,21.73
2024-01-17T18:28:49.329Z,20.75
2024-01-17T18:31:17.133Z,21.48
2024-01-17T18:33:44.215Z,21.83
2024-01-17T18:36:11.811Z,22.58
2024-01-17T18:38:42.045Z,23.77
2024-01-17T18:41:12.397Z,23.77
2024-01-17T18:43:40.989Z,22.73
2024-01-17T18:46:09.308Z,22.65
2024-01-17T18:48:36.883Z,20.60
2024-01-17T18:51:04.480Z,19.95
2024-01-17T18:53:31.459Z,22.23
2024-01-17T18:55:59.197Z,22.25
2024-01-17T18:58:26.427Z,22.10
2024-01-17T19:00:55.626Z,23.60
2024-01-17T19:03:25.959Z,21.95
2024-01-17T19:05:56.482Z,23.45
2024-01-17T19:08:23.524Z,22.67
2024-01-17T19:10:50.813Z,23.33
2024-01-17T19:13:18.912Z,23.42
2024-01-17T19:15:47.672Z,23.05
2024-01-17T19:18:16.464Z,22.02
2024-01-17T19:20:43.885Z,22.02
2024-01-17T19:23:13.878Z,21.17
2024-01-17T19:25:40.946Z,20.37
2024-01-17T19:28:08.248Z,21.48
2024-01-17T19:30:38.727Z,20.60
2024-01-17T19:33:07.299Z,23.65
2024-01-17T19:35:34.749Z,21.23
2024-01-17T19:38:02.016Z,21.40
2024-01-17T19:40:31.534Z,22.08
2024-01-17T19:43:00.134Z,22.17
2024-01-17T19:45:27.328Z,21.92
2024-01-17T19:47:54.709Z,21.75
2024-01-17T19:50:22.159Z,22.45
2024-01-17T19:52:49.191Z,20.55
2024-01-17T19:55:18.210Z,21.77
2024-01-17T19:57:47.643Z,22.83
2024-01-17T20:00:28.665Z,22.42
2024-01-17T20:02:56.801Z,23.67
2024-01-17T20:05:24.170Z,23.75
2024-01-17T20:07:51.539Z,22.62
2024-01-17T20:10:18.779Z,22.50
2024-01-17T20:12:45.795Z,24.85
2024-01-17T20:15:13.227Z,22.83
2024-01-17T20:17:40.493Z,22.52
2024-01-17T20:20:07.870Z,20.92
2024-01-17T20:22:35.150Z,20.45
2024-01-17T20:25:02.755Z,21.52
2024-01-17T20:27:32.931Z,20.55
2024-01-17T20:30:00.005Z,21.08
2024-01-17T20:32:34.814Z,21.83
2024-01-17T20:35:04.054Z,22.60
2024-01-17T20:37:31.359Z,21.25
2024-01-17T20:39:58.309Z,21.35
2024-01-17T20:42:26.602Z,20.50
2024-01-17T20:44:53.951Z,22.70
2024-01-17T20:47:21.520Z,21.30
2024-01-17T20:49:48.684Z,20.27
2024-01-17T20:52:16.009Z,20.30
2024-01-17T20:54:42.991Z,20.25
2024-01-17T20:57:10.025Z,19.45
2024-01-17T20:59:37.351Z,18.80
2024-01-17T21:02:05.054Z,20.08
2024-01-17T21:04:32.734Z,19.90
2024-01-17T21:07:00.023Z,20.98
2024-01-17T21:09:28.574Z,22.30
2024-01-17T21:11:59.377Z,22.35
2024-01-17T21:14:26.696Z,21.52
2024-01-17T21:16:53.713Z,21.98
2024-01-17T21:19:20.785Z,24.17
2024-01-17T21:21:48.014Z,23.27
2024-01-17T21:24:15.021Z,24.33
2024-01-17T21:26:44.404Z,23.30
2024-01-17T21:29:13.059Z,24.30
2024-01-17T21:31:41.306Z,21.65
2024-01-17T21:34:08.919Z,21.67
2024-01-17T21:36:36.488Z,20.48
2024-01-17T21:39:06.582Z,18.75
2024-01-17T21:41:34.140Z,21.80
2024-01-17T21:44:01.411Z,20.48
2024-01-17T21:46:29.155Z,19.92
2024-01-17T21:48:56.496Z,19.45
2024-01-17T21:51:23.867Z,20.58
2024-01-17T21:53:50.867Z,20.35
2024-01-17T21:56:17.825Z,21.55
2024-01-17T21:58:45.504Z,20.00
2024-01-17T22:01:12.988Z,19.35
2024-01-17T22:03:40.882Z,19.37
2024-01-17T22:06:08.560Z,19.40
2024-01-17T22:08:47.934Z,19.95
2024-01-17T22:11:20.786Z,19.98
2024-01-17T22:13:49.470Z,21.95
2024-01-17T22:16:17.214Z,18.90
2024-01-17T22:18:44.817Z,21.12
2024-01-17T22:21:12.332Z,21.80
2024-01-17T22:23:41.549Z,20.92
2024-01-17T22:26:11.766Z,22.13
2024-01-17T22:28:39.161Z,20.75
2024-01-17T22:31:07.984Z,18.67
2024-01-17T22:33:36.124Z,19.98
2024-01-17T22:36:03.965Z,20.00
2024-01-17T22:38:30.901Z,21.30
2024-01-17T22:40:58.118Z,20.60
2024-01-17T22:43:25.661Z,22.17
2024-01-17T22:45:53.297Z,20.02
2024-01-17T22:48:21.010Z,20.70
2024-01-17T22:50:50.910Z,18.98
2024-01-17T22:53:19.475Z,19.40
2024-01-17T22:55:47.152Z,20.02
2024-01-17T22:58:14.155Z,18.40
2024-01-17T23:04:17.518Z,16.75
2024-01-17T23:06:45.297Z,19.10
2024-01-17T23:09:12.394Z,18.60
2024-01-17T23:11:39.356Z,17.20
2024-01-17T23:14:06.645Z,18.60
2024-01-17T23:16:33.739Z,18.08
2024-01-17T23:19:01.135Z,17.95
2024-01-17T23:21:28.504Z,18.12
2024-01-17T23:23:55.546Z,19.35
2024-01-17T23:26:22.614Z,18.60
2024-01-17T23:28:49.957Z,17.62
2024-01-17T23:31:16.956Z,20.08
2024-01-17T23:33:44.144Z,19.98
2024-01-17T23:36:12.524Z,20.08
2024-01-17T23:38:43.158Z,19.50
2024-01-17T23:41:10.611Z,20.90
2024-01-17T23:43:37.871Z,23.33
2024-01-17T23:46:06.702Z,18.45
2024-01-17T23:48:34.248Z,22.27
2024-01-17T23:51:01.727Z,21.20
2024-01-17T23:53:30.631Z,24.70
2024-01-17T23:55:57.533Z,20.65
2024-01-17T23:58:25.850Z,22.27
